Time,TemperatureF,DewpointF,PressureIn,WindDirection,WindDirectionDegrees,WindSpeedMPH,WindSpeedGustMPH,Humidity,HourlyPrecipIn,Conditions,Clouds,dailyrainin,SolarRadiationWatts/m^2,SoftwareType,DateUTC
2013-03-08 00:00:00,34.5,28.0,30.11,WNW,290,0.0,4.0,77,0.00,,OVC090,0.00,0.00,VWS V14.01,2013-03-08 07:00:00,
2013-03-08 00:02:00,35.9,28.8,30.11,WNW,302,1.0,2.0,75,0.00,,OVC090,0.00,0.00,VWS V14.01,2013-03-08 07:02:00,
2013-03-08 00:07:00,35.9,28.8,30.11,West,273,1.0,4.0,75,0.00,,OVC090,0.00,0.00,VWS V14.01,2013-03-08 07:07:00,
2013-03-08 00:12:00,35.7,28.6,30.10,WSW,237,2.0,4.0,75,0.00,,OVC090,0.00,0.00,VWS V14.01,2013-03-08 07:12:00,
2013-03-08 00:17:00,35.4,28.3,30.11,WSW,237,3.0,4.0,75,0.00,,OVC090,0.00,0.00,VWS V14.01,2013-03-08 07:17:00,
2013-03-08 00:22:00,35.1,28.3,30.12,SW,225,5.0,5.0,76,0.00,,OVC090,0.00,0.00,VWS V14.01,2013-03-08 07:22:00,
2013-03-08 00:27:00,35.0,28.2,30.12,WSW,242,2.0,7.0,76,0.00,,OVC090,0.00,0.00,VWS V14.01,2013-03-08 07:27:00,
2013-03-08 00:30:00,33.8,28.0,30.09,WSW,246,2.0,7.0,79,0.00,,OVC090,0.00,0.00,VWS V14.01,2013-03-08 07:30:00,
2013-03-08 00:32:00,35.0,28.2,30.11,West,259,0.0,2.0,76,0.00,,OVC090,0.00,0.00,VWS V14.01,2013-03-08 07:32:00,
2013-03-08 00:37:00,35.0,28.2,30.10,WNW,283,1.0,3.0,76,0.00,,OVC090,0.00,0.00,VWS V14.01,2013-03-08 07:37:00,
2013-03-08 00:42:00,35.0,28.2,30.10,West,273,0.0,3.0,76,0.00,,OVC090,0.00,0.00,VWS V14.01,2013-03-08 07:42:00,
2013-03-08 00:47:00,34.8,28.3,30.11,West,275,1.0,3.0,77,0.00,,OVC090,0.00,0.00,VWS V14.01,2013-03-08 07:47:00,
2013-03-08 00:52:00,34.8,28.3,30.10,West,271,2.0,3.0,77,0.00,,OVC090,0.00,0.00,VWS V14.01,2013-03-08 07:52:00,
2013-03-08 00:58:00,34.7,28.2,30.11,West,259,1.0,4.0,77,0.00,,OVC090,0.00,0.00,VWS V14.01,2013-03-08 07:58:00,
2013-03-08 01:00:00,32.2,26.7,30.08,SW,225,2.0,3.0,80,0.00,,OVC090,0.00,0.00,VWS V14.01,2013-03-08 08:00:00,
2013-03-08 01:03:00,34.5,28.0,30.10,NW,306,3.0,4.0,77,0.00,,OVC100,0.00,0.00,VWS V14.01,2013-03-08 08:03:00,
2013-03-08 01:08:00,34.3,27.9,30.10,WNW,302,1.0,4.0,77,0.00,,OVC100,0.00,0.00,VWS V14.01,2013-03-08 08:08:00,
2013-03-08 01:13:00,34.2,27.8,30.09,NW,310,5.0,6.0,77,0.00,,OVC100,0.00,0.00,VWS V14.01,2013-03-08 08:13:00,
2013-03-08 01:18:00,34.0,27.9,30.09,WNW,298,6.0,7.0,78,0.00,,OVC100,0.00,0.00,VWS V14.01,2013-03-08 08:18:00,
2013-03-08 01:23:00,33.8,27.7,30.08,NNW,327,2.0,7.0,78,0.00,,OVC100,0.00,0.00,VWS V14.01,2013-03-08 08:23:00,
2013-03-08 01:28:00,33.7,27.9,30.09,West,264,2.0,7.0,79,0.00,,OVC100,0.00,0.00,VWS V14.01,2013-03-08 08:28:00,
2013-03-08 01:30:00,29.9,25.1,30.10,South,185,1.0,3.0,82,0.00,,OVC090,0.00,0.00,VWS V14.01,2013-03-08 08:30:00,
2013-03-08 01:33:00,33.8,28.0,30.09,WSW,246,2.0,2.0,79,0.00,,OVC100,0.00,0.00,VWS V14.01,2013-03-08 08:33:00,
2013-03-08 01:38:00,33.7,27.9,30.08,WSW,238,0.0,2.0,79,0.00,,OVC100,0.00,0.00,VWS V14.01,2013-03-08 08:38:00,
2013-03-08 01:43:00,33.6,27.8,30.08,WSW,239,0.0,2.0,79,0.00,,OVC100,0.00,0.00,VWS V14.01,2013-03-08 08:43:00,
2013-03-08 01:48:00,33.3,27.5,30.08,WSW,239,1.0,2.0,79,0.00,,OVC100,0.00,0.00,VWS V14.01,2013-03-08 08:48:00,
2013-03-08 01:53:00,32.9,27.1,30.08,WSW,239,0.0,2.0,79,0.00,,OVC100,0.00,0.00,VWS V14.01,2013-03-08 08:53:00,
2013-03-08 01:58:00,32.3,26.5,30.08,SW,225,2.0,3.0,79,0.00,,OVC100,0.00,0.00,VWS V14.01,2013-03-08 08:58:00,
2013-03-08 02:00:00,30.8,26.5,30.09,South,185,0.0,2.0,84,0.00,,OVC090,0.00,0.00,VWS V14.01,2013-03-08 09:00:00,
2013-03-08 02:03:00,32.2,26.7,30.09,SW,233,1.0,3.0,80,0.00,,OVC140,0.00,0.00,VWS V14.01,2013-03-08 09:03:00,
2013-03-08 02:08:00,31.9,26.4,30.09,SW,233,0.0,3.0,80,0.00,,OVC140,0.00,0.00,VWS V14.01,2013-03-08 09:08:00,
2013-03-08 02:13:00,31.5,26.4,30.08,SW,233,0.0,3.0,81,0.00,,OVC140,0.00,0.00,VWS V14.01,2013-03-08 09:13:00,
2013-03-08 02:18:00,31.4,26.2,30.09,SSW,193,1.0,3.0,81,0.00,,OVC140,0.00,0.00,VWS V14.01,2013-03-08 09:18:00,
2013-03-08 02:23:00,30.7,25.6,30.09,South,184,2.0,3.0,81,0.00,,OVC140,0.00,0.00,VWS V14.01,2013-03-08 09:23:00,
2013-03-08 02:28:00,30.1,25.3,30.10,South,185,1.0,3.0,82,0.00,,OVC140,0.00,0.00,VWS V14.01,2013-03-08 09:28:00,
2013-03-08 02:30:00,30.3,26.3,30.09,SSE,162,3.0,3.0,85,0.00,,OVC090,0.00,0.00,VWS V14.01,2013-03-08 09:30:00,
2013-03-08 02:33:00,29.8,25.0,30.10,South,185,1.0,1.0,82,0.00,,OVC140,0.00,0.00,VWS V14.01,2013-03-08 09:33:00,
2013-03-08 02:38:00,29.8,25.3,30.10,South,185,0.0,2.0,83,0.00,,OVC140,0.00,0.00,VWS V14.01,2013-03-08 09:38:00,
2013-03-08 02:43:00,30.4,26.1,30.10,South,184,0.0,2.0,84,0.00,,OVC140,0.00,0.00,VWS V14.01,2013-03-08 09:43:00,
2013-03-08 02:48:00,31.0,27.0,30.09,South,185,2.0,2.0,85,0.00,,OVC140,0.00,0.00,VWS V14.01,2013-03-08 09:48:00,
2013-03-08 02:53:00,31.5,27.2,30.08,South,185,1.0,2.0,84,0.00,,OVC140,0.00,0.00,VWS V14.01,2013-03-08 09:53:00,
2013-03-08 02:58:00,31.0,26.7,30.08,South,185,0.0,2.0,84,0.00,,OVC140,0.00,0.00,VWS V14.01,2013-03-08 09:58:00,
2013-03-08 03:00:00,29.7,25.8,30.09,ENE,71,3.0,6.0,85,0.00,,OVC090,0.00,0.00,VWS V14.01,2013-03-08 10:00:00,
2013-03-08 03:03:00,30.6,26.1,30.09,South,185,0.0,0.0,83,0.00,,OVC140,0.00,0.00,VWS V14.01,2013-03-08 10:03:00,
2013-03-08 03:08:00,29.8,25.3,30.09,South,185,0.0,0.0,83,0.00,,OVC140,0.00,0.00,VWS V14.01,2013-03-08 10:08:00,
2013-03-08 03:13:00,29.2,24.7,30.09,South,184,0.0,1.0,83,0.00,,OVC140,0.00,0.00,VWS V14.01,2013-03-08 10:13:00,
2013-03-08 03:18:00,29.2,25.0,30.09,South,184,0.0,3.0,84,0.00,,OVC140,0.00,0.00,VWS V14.01,2013-03-08 10:18:00,
2013-03-08 03:23:00,29.3,25.4,30.09,South,184,3.0,3.0,85,0.00,,OVC140,0.00,0.00,VWS V14.01,2013-03-08 10:23:00,
2013-03-08 03:28:00,30.1,26.1,30.09,SSE,164,1.0,3.0,85,0.00,,OVC140,0.00,0.00,VWS V14.01,2013-03-08 10:28:00,
2013-03-08 03:30:00,27.5,23.6,30.10,East,87,0.0,4.0,85,0.00,,OVC090,0.00,0.00,VWS V14.01,2013-03-08 10:30:00,
2013-03-08 03:33:00,30.3,26.1,30.09,SE,140,3.0,4.0,84,0.00,,OVC110,0.00,0.00,VWS V14.01,2013-03-08 10:33:00,
2013-03-08 03:38:00,31.1,26.8,30.08,ESE,118,1.0,5.0,84,0.00,,OVC110,0.00,0.00,VWS V14.01,2013-03-08 10:38:00,
2013-03-08 03:43:00,30.4,25.6,30.08,ESE,118,1.0,5.0,82,0.00,,OVC110,0.00,0.00,VWS V14.01,2013-03-08 10:43:00,
2013-03-08 03:48:00,28.7,23.9,30.09,ENE,75,3.0,5.0,82,0.00,,OVC110,0.00,0.00,VWS V14.01,2013-03-08 10:48:00,
2013-03-08 03:53:00,28.5,24.0,30.09,East,94,4.0,5.0,83,0.00,,OVC110,0.00,0.00,VWS V14.01,2013-03-08 10:53:00,
2013-03-08 03:58:00,29.4,25.2,30.09,East,94,3.0,6.0,84,0.00,,OVC110,0.00,0.00,VWS V14.01,2013-03-08 10:58:00,
2013-03-08 04:00:00,27.3,24.0,30.10,East,87,1.0,2.0,87,0.00,,OVC090,0.00,0.00,VWS V14.01,2013-03-08 11:00:00,
2013-03-08 04:03:00,29.4,25.2,30.09,East,80,2.0,4.0,84,0.00,,OVC110,0.00,0.00,VWS V14.01,2013-03-08 11:03:00,
2013-03-08 04:08:00,29.1,24.9,30.09,East,86,3.0,4.0,84,0.00,,OVC110,0.00,0.00,VWS V14.01,2013-03-08 11:08:00,
2013-03-08 04:13:00,28.7,24.5,30.10,East,87,2.0,4.0,84,0.00,,OVC110,0.00,0.00,VWS V14.01,2013-03-08 11:13:00,
2013-03-08 04:18:00,28.3,24.1,30.10,East,87,1.0,4.0,84,0.00,,OVC110,0.00,0.00,VWS V14.01,2013-03-08 11:18:00,
2013-03-08 04:23:00,27.8,23.6,30.10,East,87,0.0,4.0,84,0.00,,OVC110,0.00,0.00,VWS V14.01,2013-03-08 11:23:00,
2013-03-08 04:28:00,27.5,23.6,30.10,East,87,0.0,4.0,85,0.00,,OVC110,0.00,0.00,VWS V14.01,2013-03-08 11:28:00,
2013-03-08 04:30:00,28.5,24.9,30.11,East,96,0.0,3.0,86,0.00,,OVC090,0.00,0.00,VWS V14.01,2013-03-08 11:30:00,
2013-03-08 04:33:00,27.3,23.4,30.10,East,87,2.0,2.0,85,0.00,,OVC110,0.00,0.00,VWS V14.01,2013-03-08 11:33:00,
2013-03-08 04:38:00,27.2,23.6,30.09,East,87,0.0,2.0,86,0.00,,OVC110,0.00,0.00,VWS V14.01,2013-03-08 11:38:00,
2013-03-08 04:43:00,27.2,23.6,30.09,East,87,0.0,2.0,86,0.00,,OVC110,0.00,0.00,VWS V14.01,2013-03-08 11:43:00,
2013-03-08 04:48:00,27.1,23.5,30.10,East,87,0.0,2.0,86,0.00,,OVC110,0.00,0.00,VWS V14.01,2013-03-08 11:48:00,
2013-03-08 04:53:00,27.0,23.4,30.10,East,87,0.0,2.0,86,0.00,,OVC110,0.00,0.00,VWS V14.01,2013-03-08 11:53:00,
2013-03-08 04:58:00,27.1,23.8,30.10,East,87,2.0,2.0,87,0.00,,OVC110,0.00,0.00,VWS V14.01,2013-03-08 11:58:00,
2013-03-08 05:00:00,26.6,23.0,30.12,East,95,0.0,1.0,86,0.00,,OVC090,0.00,0.00,VWS V14.01,2013-03-08 12:00:00,
2013-03-08 05:03:00,27.5,24.1,30.12,East,87,1.0,2.0,87,0.00,,CLR,0.00,0.00,VWS V14.01,2013-03-08 12:03:00,
2013-03-08 05:08:00,28.5,25.4,30.11,ESE,117,1.0,3.0,88,0.00,,CLR,0.00,0.00,VWS V14.01,2013-03-08 12:08:00,
2013-03-08 05:13:00,29.2,25.8,30.11,ESE,121,1.0,3.0,87,0.00,,CLR,0.00,0.00,VWS V14.01,2013-03-08 12:13:00,
2013-03-08 05:18:00,28.8,25.4,30.10,East,95,1.0,3.0,87,0.00,,CLR,0.00,0.00,VWS V14.01,2013-03-08 12:18:00,
2013-03-08 05:23:00,28.5,24.9,30.10,East,96,1.0,3.0,86,0.00,,CLR,0.00,0.00,VWS V14.01,2013-03-08 12:23:00,
2013-03-08 05:28:00,28.5,24.9,30.11,East,96,0.0,3.0,86,0.00,,CLR,0.00,0.00,VWS V14.01,2013-03-08 12:28:00,
2013-03-08 05:30:00,25.8,22.7,30.15,East,96,0.0,2.0,88,0.00,,OVC090,0.00,14.00,VWS V14.01,2013-03-08 12:30:00,
2013-03-08 05:33:00,28.2,24.6,30.11,East,96,0.0,1.0,86,0.00,,CLR,0.00,0.00,VWS V14.01,2013-03-08 12:33:00,
2013-03-08 05:38:00,27.9,24.3,30.11,East,95,0.0,1.0,86,0.00,,CLR,0.00,0.00,VWS V14.01,2013-03-08 12:38:00,
2013-03-08 05:43:00,27.7,24.1,30.11,East,96,0.0,1.0,86,0.00,,CLR,0.00,0.00,VWS V14.01,2013-03-08 12:43:00,
2013-03-08 05:48:00,27.4,23.8,30.11,East,96,0.0,1.0,86,0.00,,CLR,0.00,0.00,VWS V14.01,2013-03-08 12:48:00,
2013-03-08 05:53:00,26.9,23.3,30.12,East,95,0.0,1.0,86,0.00,,CLR,0.00,0.00,VWS V14.01,2013-03-08 12:53:00,
2013-03-08 05:58:00,26.6,23.0,30.12,East,96,0.0,1.0,86,0.00,,CLR,0.00,0.00,VWS V14.01,2013-03-08 12:58:00,
2013-03-08 06:00:00,26.8,24.0,30.15,SE,138,2.0,3.0,89,0.00,,OVC090,0.00,44.00,VWS V14.01,2013-03-08 13:00:00,
2013-03-08 06:03:00,26.6,23.3,30.14,East,95,0.0,0.0,87,0.00,,CLR,0.00,0.00,VWS V14.01,2013-03-08 13:03:00,
2013-03-08 06:08:00,26.4,23.1,30.14,East,95,0.0,0.0,87,0.00,,CLR,0.00,0.00,VWS V14.01,2013-03-08 13:08:00,
2013-03-08 06:13:00,26.3,23.0,30.14,East,96,0.0,0.0,87,0.00,,CLR,0.00,0.00,VWS V14.01,2013-03-08 13:13:00,
2013-03-08 06:19:00,26.0,22.7,30.14,East,96,0.0,0.0,87,0.00,,CLR,0.00,0.00,VWS V14.01,2013-03-08 13:19:00,
2013-03-08 06:24:00,26.0,22.9,30.15,East,96,1.0,1.0,88,0.00,,CLR,0.00,7.00,VWS V14.01,2013-03-08 13:24:00,
2013-03-08 06:29:00,25.8,22.7,30.15,East,96,1.0,2.0,88,0.00,,CLR,0.00,11.00,VWS V14.01,2013-03-08 13:29:00,
2013-03-08 06:30:00,28.6,25.5,30.14,SE,136,0.0,2.0,88,0.00,,OVC090,0.00,135.00,VWS V14.01,2013-03-08 13:30:00,
2013-03-08 06:34:00,25.8,22.7,30.15,East,96,1.0,2.0,88,0.00,,CLR,0.00,16.00,VWS V14.01,2013-03-08 13:34:00,
2013-03-08 06:39:00,25.7,22.6,30.15,East,97,1.0,2.0,88,0.00,,CLR,0.00,19.00,VWS V14.01,2013-03-08 13:39:00,
2013-03-08 06:44:00,25.7,22.9,30.15,East,98,0.0,2.0,89,0.00,,CLR,0.00,23.00,VWS V14.01,2013-03-08 13:44:00,
2013-03-08 06:49:00,25.9,23.1,30.15,East,98,1.0,2.0,89,0.00,,CLR,0.00,26.00,VWS V14.01,2013-03-08 13:49:00,
2013-03-08 06:54:00,26.1,23.3,30.15,East,98,0.0,2.0,89,0.00,,CLR,0.00,32.00,VWS V14.01,2013-03-08 13:54:00,
2013-03-08 06:59:00,26.6,23.8,30.15,SE,138,0.0,3.0,89,0.00,,CLR,0.00,39.00,VWS V14.01,2013-03-08 13:59:00,
2013-03-08 07:00:00,29.6,26.5,30.14,ENE,72,1.0,4.0,88,0.00,,OVC090,0.00,153.00,VWS V14.01,2013-03-08 14:00:00,
2013-03-08 07:04:00,26.9,24.1,30.15,SE,138,2.0,2.0,89,0.00,,OVC200,0.00,49.00,VWS V14.01,2013-03-08 14:04:00,
2013-03-08 07:09:00,27.5,24.7,30.15,SE,137,1.0,2.0,89,0.00,,OVC200,0.00,58.00,VWS V14.01,2013-03-08 14:09:00,
2013-03-08 07:14:00,27.8,25.0,30.15,SE,137,0.0,2.0,89,0.00,,OVC200,0.00,70.00,VWS V14.01,2013-03-08 14:14:00,
2013-03-08 07:19:00,28.2,25.4,30.14,SE,137,0.0,2.0,89,0.00,,OVC200,0.00,90.00,VWS V14.01,2013-03-08 14:19:00,
2013-03-08 07:24:00,28.5,25.7,30.14,SE,137,0.0,2.0,89,0.00,,OVC200,0.00,105.00,VWS V14.01,2013-03-08 14:24:00,
2013-03-08 07:29:00,28.5,25.4,30.14,SE,137,0.0,2.0,88,0.00,,OVC200,0.00,120.00,VWS V14.01,2013-03-08 14:29:00,
2013-03-08 07:30:00,33.0,29.0,30.15,South,172,6.0,10.0,85,0.00,,OVC090,0.00,371.00,VWS V14.01,2013-03-08 14:30:00,
2013-03-08 07:34:00,28.7,25.9,30.14,East,99,2.0,3.0,89,0.00,,OVC200,0.00,127.00,VWS V14.01,2013-03-08 14:34:00,
2013-03-08 07:39:00,28.9,25.8,30.14,East,98,1.0,3.0,88,0.00,,OVC200,0.00,130.00,VWS V14.01,2013-03-08 14:39:00,
2013-03-08 07:44:00,29.1,26.0,30.15,East,98,1.0,3.0,88,0.00,,OVC200,0.00,118.00,VWS V14.01,2013-03-08 14:44:00,
2013-03-08 07:49:00,29.2,26.1,30.15,ENE,75,2.0,3.0,88,0.00,,OVC200,0.00,123.00,VWS V14.01,2013-03-08 14:49:00,
2013-03-08 07:54:00,29.5,26.4,30.14,ENE,75,2.0,3.0,88,0.00,,OVC200,0.00,130.00,VWS V14.01,2013-03-08 14:54:00,
2013-03-08 07:59:00,29.6,26.5,30.14,ENE,72,1.0,4.0,88,0.00,,OVC200,0.00,141.00,VWS V14.01,2013-03-08 14:59:00,
2013-03-08 08:00:00,35.0,29.2,30.12,SE,142,5.0,11.0,79,0.00,,OVC090,0.00,431.00,VWS V14.01,2013-03-08 15:00:00,
2013-03-08 08:04:00,29.9,26.8,30.16,ENE,72,1.0,4.0,88,0.00,,BKN140,0.00,153.00,VWS V14.01,2013-03-08 15:04:00,
2013-03-08 08:09:00,30.3,27.2,30.16,East,82,3.0,4.0,88,0.00,,BKN140,0.00,163.00,VWS V14.01,2013-03-08 15:09:00,
2013-03-08 08:14:00,30.7,27.3,30.16,ENE,76,2.0,5.0,87,0.00,,BKN140,0.00,169.00,VWS V14.01,2013-03-08 15:14:00,
2013-03-08 08:19:00,30.9,27.5,30.15,ENE,76,2.0,5.0,87,0.00,,BKN140,0.00,199.00,VWS V14.01,2013-03-08 15:19:00,
2013-03-08 08:24:00,31.4,28.0,30.16,East,98,3.0,5.0,87,0.00,,BKN140,0.00,258.00,VWS V14.01,2013-03-08 15:24:00,
2013-03-08 08:29:00,32.7,29.0,30.15,SE,141,2.0,7.0,86,0.00,,BKN140,0.00,308.00,VWS V14.01,2013-03-08 15:29:00,
2013-03-08 08:30:00,36.5,29.3,30.12,SE,130,6.0,11.0,75,0.00,,OVC090,0.00,424.00,VWS V14.01,2013-03-08 15:30:00,
2013-03-08 08:34:00,33.1,28.8,30.14,SSE,159,5.0,9.0,84,0.00,,BKN140,0.00,380.00,VWS V14.01,2013-03-08 15:34:00,
2013-03-08 08:39:00,33.9,29.0,30.14,SSE,165,6.0,11.0,82,0.00,,BKN140,0.00,362.00,VWS V14.01,2013-03-08 15:39:00,
2013-03-08 08:44:00,34.0,28.8,30.14,South,182,7.0,11.0,81,0.00,,BKN140,0.00,371.00,VWS V14.01,2013-03-08 15:44:00,
2013-03-08 08:49:00,34.0,28.8,30.13,South,171,5.0,11.0,81,0.00,,BKN140,0.00,345.00,VWS V14.01,2013-03-08 15:49:00,
2013-03-08 08:54:00,34.5,29.0,30.12,SSE,159,3.0,11.0,80,0.00,,BKN140,0.00,364.00,VWS V14.01,2013-03-08 15:54:00,
2013-03-08 08:59:00,35.0,29.2,30.12,SSE,157,3.0,11.0,79,0.00,,BKN140,0.00,429.00,VWS V14.01,2013-03-08 15:59:00,
2013-03-08 09:00:00,37.5,30.3,30.11,ESE,122,10.0,12.0,75,0.00,,OVC090,0.00,483.00,VWS V14.01,2013-03-08 16:00:00,
2013-03-08 09:04:00,35.6,29.4,30.13,SE,146,5.0,10.0,78,0.00,,BKN140,0.00,431.00,VWS V14.01,2013-03-08 16:04:00,
2013-03-08 09:09:00,35.8,29.3,30.13,SSE,154,9.0,10.0,77,0.00,,BKN140,0.00,504.00,VWS V14.01,2013-03-08 16:09:00,
2013-03-08 09:14:00,36.1,29.3,30.13,SSE,160,5.0,10.0,76,0.00,,BKN140,0.00,490.00,VWS V14.01,2013-03-08 16:14:00,
2013-03-08 09:19:00,36.0,28.9,30.13,ESE,118,3.0,10.0,75,0.00,,BKN140,0.00,434.00,VWS V14.01,2013-03-08 16:19:00,
2013-03-08 09:24:00,36.0,29.2,30.13,SSE,156,4.0,10.0,76,0.00,,BKN140,0.00,373.00,VWS V14.01,2013-03-08 16:24:00,
2013-03-08 09:29:00,36.1,29.0,30.13,South,170,1.0,11.0,75,0.00,,BKN140,0.00,454.00,VWS V14.01,2013-03-08 16:29:00,
2013-03-08 09:30:00,38.2,30.0,30.08,SE,138,8.0,11.0,72,0.00,,OVC090,0.00,334.00,VWS V14.01,2013-03-08 16:30:00,
2013-03-08 09:34:00,36.3,29.1,30.12,SE,134,5.0,6.0,75,0.00,,BKN170,0.00,425.00,VWS V14.01,2013-03-08 16:34:00,
2013-03-08 09:39:00,36.2,29.0,30.12,SSE,156,6.0,6.0,75,0.00,,BKN170,0.00,417.00,VWS V14.01,2013-03-08 16:39:00,
2013-03-08 09:44:00,36.7,29.5,30.12,SE,129,2.0,8.0,75,0.00,,BKN170,0.00,357.00,VWS V14.01,2013-03-08 16:44:00,
2013-03-08 09:49:00,36.7,29.2,30.11,SSE,154,5.0,8.0,74,0.00,,BKN170,0.00,441.00,VWS V14.01,2013-03-08 16:49:00,
2013-03-08 09:54:00,37.2,30.0,30.11,SSE,157,7.0,11.0,75,0.00,,BKN170,0.00,438.00,VWS V14.01,2013-03-08 16:54:00,
2013-03-08 09:59:00,37.1,29.9,30.12,SSE,150,3.0,11.0,75,0.00,,BKN170,0.00,475.00,VWS V14.01,2013-03-08 16:59:00,
2013-03-08 10:00:00,39.1,30.5,30.06,SE,132,3.0,10.0,71,0.00,,OVC090,0.00,276.00,VWS V14.01,2013-03-08 17:00:00,
2013-03-08 10:04:00,37.4,30.2,30.10,South,189,7.0,11.0,75,0.00,,BKN170,0.00,499.00,VWS V14.01,2013-03-08 17:04:00,
2013-03-08 10:09:00,37.8,30.3,30.09,SSE,165,6.0,11.0,74,0.00,,BKN170,0.00,480.00,VWS V14.01,2013-03-08 17:09:00,
2013-03-08 10:14:00,37.9,30.0,30.09,South,173,6.0,11.0,73,0.00,,BKN170,0.00,411.00,VWS V14.01,2013-03-08 17:14:00,
2013-03-08 10:19:00,38.0,30.1,30.09,SE,142,10.0,11.0,73,0.00,,BKN170,0.00,366.00,VWS V14.01,2013-03-08 17:19:00,
2013-03-08 10:24:00,38.2,30.0,30.08,SSE,153,7.0,11.0,72,0.00,,BKN170,0.00,371.00,VWS V14.01,2013-03-08 17:24:00,
2013-03-08 10:29:00,38.4,30.2,30.08,SE,132,5.0,11.0,72,0.00,,BKN170,0.00,359.00,VWS V14.01,2013-03-08 17:29:00,
2013-03-08 10:30:00,38.5,29.9,30.05,East,101,13.0,13.0,71,0.00,,OVC090,0.00,490.00,VWS V14.01,2013-03-08 17:30:00,
2013-03-08 10:34:00,38.2,30.0,30.07,SE,131,4.0,9.0,72,0.00,,FEW190,0.00,325.00,VWS V14.01,2013-03-08 17:34:00,
2013-03-08 10:39:00,38.8,30.6,30.06,East,83,9.0,10.0,72,0.00,,FEW190,0.00,316.00,VWS V14.01,2013-03-08 17:39:00,
2013-03-08 10:44:00,38.6,30.4,30.06,SE,145,7.0,10.0,72,0.00,,FEW190,0.00,308.00,VWS V14.01,2013-03-08 17:44:00,
2013-03-08 10:49:00,38.6,30.4,30.06,SSE,150,10.0,10.0,72,0.00,,FEW190,0.00,301.00,VWS V14.01,2013-03-08 17:49:00,
2013-03-08 10:54:00,38.8,30.6,30.06,ESE,113,5.0,10.0,72,0.00,,FEW190,0.00,301.00,VWS V14.01,2013-03-08 17:54:00,
2013-03-08 10:59:00,38.8,30.6,30.06,East,92,8.0,10.0,72,0.00,,FEW190,0.00,290.00,VWS V14.01,2013-03-08 17:59:00,
2013-03-08 11:00:00,37.8,29.9,30.03,East,94,6.0,15.0,73,0.00,,OVC090,0.00,457.00,VWS V14.01,2013-03-08 18:00:00,
2013-03-08 11:04:00,39.2,30.6,30.06,East,88,5.0,7.0,71,0.00,,BKN200,0.00,272.00,VWS V14.01,2013-03-08 18:04:00,
2013-03-08 11:09:00,38.5,29.9,30.06,East,93,11.0,11.0,71,0.00,,BKN200,0.00,279.00,VWS V14.01,2013-03-08 18:09:00,
2013-03-08 11:14:00,38.4,30.2,30.05,East,88,7.0,11.0,72,0.00,,BKN200,0.00,302.00,VWS V14.01,2013-03-08 18:14:00,
2013-03-08 11:19:00,38.0,29.8,30.05,East,89,12.0,12.0,72,0.00,,BKN200,0.00,343.00,VWS V14.01,2013-03-08 18:19:00,
2013-03-08 11:24:00,38.1,29.9,30.05,East,88,9.0,12.0,72,0.00,,BKN200,0.00,367.00,VWS V14.01,2013-03-08 18:24:00,
2013-03-08 11:29:00,38.4,30.2,30.05,NE,56,5.0,12.0,72,0.00,,BKN200,0.00,462.00,VWS V14.01,2013-03-08 18:29:00,
2013-03-08 11:30:00,38.1,29.5,30.01,ESE,102,7.0,13.0,71,0.00,,OVC090,0.00,408.00,VWS V14.01,2013-03-08 18:30:00,
2013-03-08 11:34:00,38.6,30.0,30.05,ENE,75,8.0,13.0,71,0.00,,BKN200,0.00,480.00,VWS V14.01,2013-03-08 18:34:00,
2013-03-08 11:39:00,38.3,29.7,30.05,NE,46,5.0,14.0,71,0.00,,BKN200,0.00,410.00,VWS V14.01,2013-03-08 18:39:00,
2013-03-08 11:44:00,38.4,29.8,30.04,ENE,65,6.0,15.0,71,0.00,,BKN200,0.00,410.00,VWS V14.01,2013-03-08 18:44:00,
2013-03-08 11:49:00,38.4,29.8,30.04,East,92,10.0,15.0,71,0.00,,BKN200,0.00,420.00,VWS V14.01,2013-03-08 18:49:00,
2013-03-08 11:54:00,37.9,29.7,30.04,ENE,63,10.0,15.0,72,0.00,,BKN200,0.00,471.00,VWS V14.01,2013-03-08 18:54:00,
2013-03-08 11:59:00,37.8,29.3,30.03,ENE,69,10.0,15.0,71,0.00,,BKN200,0.00,454.00,VWS V14.01,2013-03-08 18:59:00,
2013-03-08 12:00:00,40.2,29.4,29.99,East,99,5.0,13.0,65,0.00,,OVC090,0.00,577.00,VWS V14.01,2013-03-08 19:00:00,
2013-03-08 12:04:00,37.9,29.4,30.04,NE,52,9.0,12.0,71,0.00,,BKN200,0.00,455.00,VWS V14.01,2013-03-08 19:04:00,
2013-03-08 12:09:00,38.2,30.0,30.04,ENE,64,9.0,12.0,72,0.00,,BKN200,0.00,427.00,VWS V14.01,2013-03-08 19:09:00,
2013-03-08 12:14:00,38.4,29.8,30.03,ENE,68,8.0,13.0,71,0.00,,BKN200,0.00,401.00,VWS V14.01,2013-03-08 19:14:00,
2013-03-08 12:19:00,38.2,29.6,30.02,East,94,7.0,13.0,71,0.00,,BKN200,0.00,383.00,VWS V14.01,2013-03-08 19:19:00,
2013-03-08 12:24:00,37.9,29.7,30.02,ENE,74,4.0,13.0,72,0.00,,BKN200,0.00,371.00,VWS V14.01,2013-03-08 19:24:00,
2013-03-08 12:29:00,37.8,29.3,30.02,East,92,7.0,13.0,71,0.00,,BKN200,0.00,408.00,VWS V14.01,2013-03-08 19:29:00,
2013-03-08 12:30:00,41.5,29.9,29.96,East,99,12.0,14.0,63,0.00,,OVC090,0.00,499.00,VWS V14.01,2013-03-08 19:30:00,
2013-03-08 12:34:00,38.5,29.6,30.01,ENE,76,4.0,10.0,70,0.00,,BKN200,0.00,431.00,VWS V14.01,2013-03-08 19:34:00,
2013-03-08 12:39:00,38.9,29.6,30.00,ENE,77,6.0,10.0,69,0.00,,BKN200,0.00,490.00,VWS V14.01,2013-03-08 19:39:00,
2013-03-08 12:44:00,38.8,29.5,30.00,East,87,6.0,10.0,69,0.00,,BKN200,0.00,647.00,VWS V14.01,2013-03-08 19:44:00,
2013-03-08 12:49:00,39.7,29.3,30.00,East,94,11.0,12.0,66,0.00,,BKN200,0.00,554.00,VWS V14.01,2013-03-08 19:49:00,
2013-03-08 12:54:00,39.3,28.9,30.00,East,80,8.0,13.0,66,0.00,,BKN200,0.00,621.00,VWS V14.01,2013-03-08 19:54:00,
2013-03-08 12:59:00,39.9,29.1,29.99,ENE,57,5.0,13.0,65,0.00,,BKN200,0.00,619.00,VWS V14.01,2013-03-08 19:59:00,
2013-03-08 13:00:00,42.1,30.0,29.94,East,88,4.0,15.0,62,0.00,,OVC090,0.00,418.00,VWS V14.01,2013-03-08 20:00:00,
2013-03-08 13:04:00,40.0,28.8,29.99,ENE,65,4.0,13.0,64,0.00,,BKN190,0.00,656.00,VWS V14.01,2013-03-08 20:04:00,
2013-03-08 13:09:00,40.5,29.7,29.99,ESE,103,3.0,14.0,65,0.00,,BKN190,0.00,596.00,VWS V14.01,2013-03-08 20:09:00,
2013-03-08 13:14:00,40.8,29.6,29.99,East,90,13.0,14.0,64,0.00,,BKN190,0.00,563.00,VWS V14.01,2013-03-08 20:14:00,
2013-03-08 13:19:00,41.0,29.8,29.98,SE,127,4.0,14.0,64,0.00,,BKN190,0.00,519.00,VWS V14.01,2013-03-08 20:19:00,
2013-03-08 13:24:00,41.2,30.0,29.98,East,93,9.0,14.0,64,0.00,,BKN190,0.00,503.00,VWS V14.01,2013-03-08 20:24:00,
2013-03-08 13:29:00,41.8,29.8,29.97,ESE,113,5.0,14.0,62,0.00,,BKN190,0.00,534.00,VWS V14.01,2013-03-08 20:29:00,
2013-03-08 13:30:00,42.2,30.1,29.94,ESE,104,9.0,12.0,62,0.00,,OVC090,0.00,311.00,VWS V14.01,2013-03-08 20:30:00,
2013-03-08 13:34:00,41.3,29.7,29.97,ESE,115,10.0,15.0,63,0.00,,BKN190,0.00,446.00,VWS V14.01,2013-03-08 20:34:00,
2013-03-08 13:40:00,41.3,29.7,29.96,ESE,111,11.0,15.0,63,0.00,,BKN190,0.00,418.00,VWS V14.01,2013-03-08 20:40:00,
2013-03-08 13:45:00,41.5,29.5,29.95,East,95,6.0,15.0,62,0.00,,BKN190,0.00,468.00,VWS V14.01,2013-03-08 20:45:00,
2013-03-08 13:50:00,41.5,29.5,29.94,East,82,6.0,15.0,62,0.00,,BKN190,0.00,490.00,VWS V14.01,2013-03-08 20:50:00,
2013-03-08 13:55:00,42.1,30.0,29.95,East,84,4.0,15.0,62,0.00,,BKN190,0.00,411.00,VWS V14.01,2013-03-08 20:55:00,
2013-03-08 14:00:00,41.7,29.7,29.94,East,85,5.0,15.0,62,0.00,,BKN190,0.00,427.00,VWS V14.01,2013-03-08 21:00:00,
2013-03-08 14:05:00,42.3,29.8,29.95,ESE,103,4.0,9.0,61,0.00,,SCT200,0.00,434.00,VWS V14.01,2013-03-08 21:05:00,
2013-03-08 14:10:00,42.3,29.8,29.94,ENE,76,7.0,12.0,61,0.00,,SCT200,0.00,390.00,VWS V14.01,2013-03-08 21:10:00,
2013-03-08 14:15:00,42.2,29.7,29.94,ENE,74,8.0,12.0,61,0.00,,SCT200,0.00,388.00,VWS V14.01,2013-03-08 21:15:00,
2013-03-08 14:20:00,41.8,29.8,29.94,East,86,6.0,12.0,62,0.00,,SCT200,0.00,339.00,VWS V14.01,2013-03-08 21:20:00,
2013-03-08 14:25:00,41.9,29.9,29.94,East,94,9.0,12.0,62,0.00,,SCT200,0.00,316.00,VWS V14.01,2013-03-08 21:25:00,
2013-03-08 14:30:00,42.2,30.1,29.94,SE,126,6.0,12.0,62,0.00,,SCT200,0.00,311.00,VWS V14.01,2013-03-08 21:30:00,
2013-03-08 14:35:00,42.0,29.5,29.94,East,80,5.0,11.0,61,0.00,,SCT200,0.00,294.00,VWS V14.01,2013-03-08 21:35:00,
2013-03-08 14:40:00,41.7,29.7,29.93,East,80,6.0,12.0,62,0.00,,SCT200,0.00,288.00,VWS V14.01,2013-03-08 21:40:00,
2013-03-08 14:45:00,42.0,29.9,29.93,East,94,5.0,12.0,62,0.00,,SCT200,0.00,309.00,VWS V14.01,2013-03-08 21:45:00,
2013-03-08 14:50:00,42.1,29.6,29.94,East,94,9.0,12.0,61,0.00,,SCT200,0.00,318.00,VWS V14.01,2013-03-08 21:50:00,
2013-03-08 14:55:00,42.3,29.8,29.94,ESE,106,3.0,12.0,61,0.00,,SCT200,0.00,292.00,VWS V14.01,2013-03-08 21:55:00,
2013-03-08 15:00:00,42.4,29.9,29.94,ESE,111,5.0,12.0,61,0.00,,SCT200,0.00,295.00,VWS V14.01,2013-03-08 22:00:00,
2013-03-08 15:05:00,42.1,29.6,29.93,SSE,159,6.0,11.0,61,0.00,,SCT190,0.00,343.00,VWS V14.01,2013-03-08 22:05:00,
2013-03-08 15:10:00,42.1,30.0,29.93,ESE,102,5.0,14.0,62,0.00,,SCT190,0.00,285.00,VWS V14.01,2013-03-08 22:10:00,
2013-03-08 15:15:00,42.1,30.0,29.93,ESE,104,6.0,14.0,62,0.00,,SCT190,0.00,258.00,VWS V14.01,2013-03-08 22:15:00,
2013-03-08 15:20:00,42.3,29.8,29.93,ESE,115,5.0,14.0,61,0.00,,SCT190,0.00,278.00,VWS V14.01,2013-03-08 22:20:00,
2013-03-08 15:25:00,42.4,29.9,29.93,ESE,102,5.0,14.0,61,0.00,,SCT190,0.00,232.00,VWS V14.01,2013-03-08 22:25:00,
2013-03-08 15:30:00,42.1,29.6,29.92,East,101,5.0,14.0,61,0.00,,SCT190,0.00,220.00,VWS V14.01,2013-03-08 22:30:00,
2013-03-08 15:35:00,42.2,29.7,29.92,ESE,119,6.0,11.0,61,0.00,,SCT190,0.00,225.00,VWS V14.01,2013-03-08 22:35:00,
2013-03-08 15:40:00,42.1,29.6,29.92,ESE,110,4.0,11.0,61,0.00,,SCT190,0.00,236.00,VWS V14.01,2013-03-08 22:40:00,
2013-03-08 15:45:00,42.2,29.7,29.92,ESE,116,5.0,11.0,61,0.00,,SCT190,0.00,200.00,VWS V14.01,2013-03-08 22:45:00,
2013-03-08 15:50:00,42.1,29.6,29.92,East,91,11.0,12.0,61,0.00,,SCT190,0.00,176.00,VWS V14.01,2013-03-08 22:50:00,
2013-03-08 15:55:00,42.0,29.5,29.92,ESE,102,8.0,13.0,61,0.00,,SCT190,0.00,176.00,VWS V14.01,2013-03-08 22:55:00,
2013-03-08 16:00:00,42.1,29.6,29.91,ENE,76,7.0,13.0,61,0.00,,SCT190,0.00,158.00,VWS V14.01,2013-03-08 23:00:00,
2013-03-08 16:05:00,42.0,29.5,29.92,SE,126,9.0,13.0,61,0.00,,CLR,0.00,141.00,VWS V14.01,2013-03-08 23:05:00,
2013-03-08 16:10:00,41.7,29.3,29.92,East,92,4.0,13.0,61,0.00,,CLR,0.00,134.00,VWS V14.01,2013-03-08 23:10:00,
2013-03-08 16:15:00,41.7,29.7,29.92,ESE,102,10.0,13.0,62,0.00,,CLR,0.00,121.00,VWS V14.01,2013-03-08 23:15:00,
2013-03-08 16:20:00,41.6,29.6,29.92,East,95,6.0,13.0,62,0.00,,CLR,0.00,114.00,VWS V14.01,2013-03-08 23:20:00,
2013-03-08 16:25:00,41.3,29.3,29.92,ESE,106,6.0,13.0,62,0.00,,CLR,0.00,104.00,VWS V14.01,2013-03-08 23:25:00,
2013-03-08 16:30:00,41.4,29.4,29.92,ESE,119,4.0,13.0,62,0.00,,CLR,0.00,93.00,VWS V14.01,2013-03-08 23:30:00,
2013-03-08 16:35:00,41.4,29.4,29.92,ESE,107,5.0,10.0,62,0.00,,CLR,0.00,86.00,VWS V14.01,2013-03-08 23:35:00,
2013-03-08 16:40:00,41.4,29.4,29.92,ESE,105,7.0,10.0,62,0.00,,CLR,0.00,86.00,VWS V14.01,2013-03-08 23:40:00,
2013-03-08 16:45:00,41.4,29.8,29.92,East,98,11.0,11.0,63,0.00,,CLR,0.00,88.00,VWS V14.01,2013-03-08 23:45:00,
2013-03-08 16:50:00,41.4,29.8,29.92,East,101,6.0,11.0,63,0.00,,CLR,0.00,90.00,VWS V14.01,2013-03-08 23:50:00,
2013-03-08 16:55:00,41.4,29.8,29.92,East,99,6.0,11.0,63,0.00,,CLR,0.00,76.00,VWS V14.01,2013-03-08 23:55:00,
2013-03-08 17:00:00,41.3,29.7,29.92,East,97,9.0,11.0,63,0.00,,CLR,0.00,69.00,VWS V14.01,2013-03-09 00:00:00,
2013-03-08 17:05:00,41.1,29.5,29.92,SSE,155,5.0,12.0,63,0.00,,BKN120,0.00,65.00,VWS V14.01,2013-03-09 00:05:00,
2013-03-08 17:10:00,41.0,29.4,29.92,SE,129,5.0,12.0,63,0.00,,BKN120,0.00,58.00,VWS V14.01,2013-03-09 00:10:00,
2013-03-08 17:15:00,40.9,29.3,29.93,East,98,10.0,12.0,63,0.00,,BKN120,0.00,42.00,VWS V14.01,2013-03-09 00:15:00,
2013-03-08 17:20:00,40.5,29.3,29.93,ESE,102,5.0,12.0,64,0.00,,BKN120,0.00,28.00,VWS V14.01,2013-03-09 00:20:00,
2013-03-08 17:25:00,40.0,28.8,29.94,ESE,122,8.0,12.0,64,0.00,,BKN120,0.00,23.00,VWS V14.01,2013-03-09 00:25:00,
2013-03-08 17:30:00,39.6,28.8,29.94,ESE,109,7.0,12.0,65,0.00,,BKN120,0.00,18.00,VWS V14.01,2013-03-09 00:30:00,
2013-03-08 17:35:00,39.1,28.3,29.94,East,101,6.0,12.0,65,0.00,,BKN120,0.00,14.00,VWS V14.01,2013-03-09 00:35:00,
2013-03-08 17:40:00,38.6,28.2,29.94,East,96,6.0,12.0,66,0.00,,BKN120,0.00,9.00,VWS V14.01,2013-03-09 00:40:00,
2013-03-08 17:45:00,38.2,28.2,29.95,ESE,111,7.0,12.0,67,0.00,,BKN120,0.00,5.00,VWS V14.01,2013-03-09 00:45:00,
2013-03-08 17:50:00,37.6,28.0,29.94,SE,128,5.0,12.0,68,0.00,,BKN120,0.00,0.00,VWS V14.01,2013-03-09 00:50:00,
2013-03-08 17:55:00,37.0,27.8,29.94,ESE,116,8.0,12.0,69,0.00,,BKN120,0.00,0.00,VWS V14.01,2013-03-09 00:55:00,
2013-03-08 18:00:00,36.4,27.6,29.95,SE,124,6.0,12.0,70,0.00,,BKN120,0.00,0.00,VWS V14.01,2013-03-09 01:00:00,
2013-03-08 18:05:00,35.9,27.4,29.95,SE,126,7.0,10.0,71,0.00,,OVC120,0.00,0.00,VWS V14.01,2013-03-09 01:05:00,
2013-03-08 18:10:00,35.5,27.4,29.95,SE,138,9.0,11.0,72,0.00,,OVC120,0.00,0.00,VWS V14.01,2013-03-09 01:10:00,
2013-03-08 18:15:00,35.0,27.2,29.96,ESE,115,7.0,13.0,73,0.00,,OVC120,0.00,0.00,VWS V14.01,2013-03-09 01:15:00,
2013-03-08 18:20:00,34.8,27.4,29.95,SE,125,4.0,13.0,74,0.00,,OVC120,0.00,0.00,VWS V14.01,2013-03-09 01:20:00,
2013-03-08 18:25:00,34.5,27.1,29.95,ESE,113,5.0,13.0,74,0.00,,OVC120,0.00,0.00,VWS V14.01,2013-03-09 01:25:00,
2013-03-08 18:30:00,34.1,27.0,29.96,ESE,107,5.0,13.0,75,0.00,,OVC120,0.00,0.00,VWS V14.01,2013-03-09 01:30:00,
2013-03-08 18:35:00,34.0,27.2,29.96,SE,141,5.0,6.0,76,0.00,,OVC120,0.00,0.00,VWS V14.01,2013-03-09 01:35:00,
2013-03-08 18:40:00,34.0,27.2,29.97,ESE,120,6.0,9.0,76,0.00,,OVC120,0.00,0.00,VWS V14.01,2013-03-09 01:40:00,
2013-03-08 18:45:00,33.9,27.1,29.96,ESE,121,5.0,9.0,76,0.00,,OVC120,0.00,0.00,VWS V14.01,2013-03-09 01:45:00,
2013-03-08 18:50:00,33.8,27.4,29.96,East,101,3.0,9.0,77,0.00,,OVC120,0.00,0.00,VWS V14.01,2013-03-09 01:50:00,
2013-03-08 18:55:00,33.8,27.4,29.96,ESE,110,5.0,9.0,77,0.00,,OVC120,0.00,0.00,VWS V14.01,2013-03-09 01:55:00,
2013-03-08 19:00:00,33.8,27.7,29.96,ESE,123,6.0,9.0,78,0.00,,OVC120,0.00,0.00,VWS V14.01,2013-03-09 02:00:00,
2013-03-08 19:05:00,33.8,27.7,29.95,East,99,6.0,9.0,78,0.00,,BKN130,0.00,0.00,VWS V14.01,2013-03-09 02:05:00,
2013-03-08 19:10:00,33.7,27.6,29.95,SE,126,7.0,9.0,78,0.00,,BKN130,0.00,0.00,VWS V14.01,2013-03-09 02:10:00,
2013-03-08 19:15:00,33.6,27.8,29.94,ESE,121,4.0,9.0,79,0.00,,BKN130,0.00,0.00,VWS V14.01,2013-03-09 02:15:00,
2013-03-08 19:20:00,33.6,27.8,29.95,ESE,119,5.0,9.0,79,0.00,,BKN130,0.00,0.00,VWS V14.01,2013-03-09 02:20:00,
2013-03-08 19:25:00,33.5,27.7,29.95,East,98,4.0,9.0,79,0.00,,BKN130,0.00,0.00,VWS V14.01,2013-03-09 02:25:00,
2013-03-08 19:30:00,33.4,27.6,29.96,East,89,2.0,9.0,79,0.00,,BKN130,0.00,0.00,VWS V14.01,2013-03-09 02:30:00,
2013-03-08 19:36:00,33.2,27.7,29.96,East,84,1.0,2.0,80,0.00,,BKN130,0.00,0.00,VWS V14.01,2013-03-09 02:36:00,
2013-03-08 19:41:00,33.0,27.5,29.96,East,84,0.0,2.0,80,0.00,,BKN130,0.00,0.00,VWS V14.01,2013-03-09 02:41:00,
2013-03-08 19:46:00,32.9,27.4,29.96,East,84,0.0,2.0,80,0.00,,BKN130,0.00,0.00,VWS V14.01,2013-03-09 02:46:00,
2013-03-08 19:51:00,32.8,27.3,29.97,ENE,59,1.0,3.0,80,0.00,,BKN130,0.00,0.00,VWS V14.01,2013-03-09 02:51:00,
2013-03-08 19:56:00,32.6,27.1,29.96,ENE,59,0.0,3.0,80,0.00,,BKN130,0.00,0.00,VWS V14.01,2013-03-09 02:56:00,
2013-03-08 20:00:00,28.7,24.5,29.95,South,171,2.0,4.0,84,0.00,,OVC090,0.00,0.00,VWS V14.01,2013-03-09 03:00:00,
2013-03-08 20:01:00,32.3,26.8,29.97,ENE,60,2.0,3.0,80,0.00,,BKN130,0.00,0.00,VWS V14.01,2013-03-09 03:01:00,
2013-03-08 20:06:00,32.1,26.9,29.95,ENE,60,0.0,2.0,81,0.00,,OVC110,0.00,0.00,VWS V14.01,2013-03-09 03:06:00,
2013-03-08 20:11:00,31.9,26.7,29.96,ENE,60,0.0,2.0,81,0.00,,OVC110,0.00,0.00,VWS V14.01,2013-03-09 03:11:00,
2013-03-08 20:16:00,31.8,26.6,29.96,ENE,60,0.0,2.0,81,0.00,,OVC110,0.00,0.00,VWS V14.01,2013-03-09 03:16:00,
2013-03-08 20:21:00,31.6,26.5,29.95,ENE,60,1.0,2.0,81,0.00,,OVC110,0.00,0.00,VWS V14.01,2013-03-09 03:21:00,
2013-03-08 20:26:00,31.2,26.1,29.95,ENE,72,0.0,2.0,81,0.00,,OVC110,0.00,0.00,VWS V14.01,2013-03-09 03:26:00,
2013-03-08 20:30:00,27.2,23.3,29.95,SE,141,1.0,2.0,85,0.00,,OVC090,0.00,0.00,VWS V14.01,2013-03-09 03:30:00,
2013-03-08 20:31:00,31.0,26.2,29.94,SE,130,1.0,2.0,82,0.00,,OVC110,0.00,0.00,VWS V14.01,2013-03-09 03:31:00,
2013-03-08 20:36:00,30.7,25.9,29.94,SE,130,0.0,2.0,82,0.00,,OVC110,0.00,0.00,VWS V14.01,2013-03-09 03:36:00,
2013-03-08 20:41:00,30.2,25.4,29.95,South,188,3.0,4.0,82,0.00,,OVC110,0.00,0.00,VWS V14.01,2013-03-09 03:41:00,
2013-03-08 20:46:00,29.3,24.5,29.95,South,171,2.0,4.0,82,0.00,,OVC110,0.00,0.00,VWS V14.01,2013-03-09 03:46:00,
2013-03-08 20:51:00,29.0,24.8,29.95,South,171,0.0,4.0,84,0.00,,OVC110,0.00,0.00,VWS V14.01,2013-03-09 03:51:00,
2013-03-08 20:56:00,29.1,24.9,29.96,South,171,0.0,4.0,84,0.00,,OVC110,0.00,0.00,VWS V14.01,2013-03-09 03:56:00,
2013-03-08 21:00:00,25.9,22.6,29.94,ENE,78,3.0,3.0,87,0.00,,OVC090,0.00,0.00,VWS V14.01,2013-03-09 04:00:00,
2013-03-08 21:01:00,28.7,24.5,29.95,South,171,1.0,4.0,84,0.00,,OVC110,0.00,0.00,VWS V14.01,2013-03-09 04:01:00,
2013-03-08 21:06:00,28.1,23.9,29.94,South,171,0.0,2.0,84,0.00,,CLR,0.00,0.00,VWS V14.01,2013-03-09 04:06:00,
2013-03-08 21:11:00,27.8,23.6,29.94,South,171,0.0,2.0,84,0.00,,CLR,0.00,0.00,VWS V14.01,2013-03-09 04:11:00,
2013-03-08 21:16:00,27.7,23.5,29.94,South,171,0.0,2.0,84,0.00,,CLR,0.00,0.00,VWS V14.01,2013-03-09 04:16:00,
2013-03-08 21:21:00,27.6,23.4,29.94,South,171,0.0,2.0,84,0.00,,CLR,0.00,0.00,VWS V14.01,2013-03-09 04:21:00,
2013-03-08 21:26:00,27.4,23.5,29.94,SSE,152,1.0,2.0,85,0.00,,CLR,0.00,0.00,VWS V14.01,2013-03-09 04:26:00,
2013-03-08 21:30:00,24.0,21.2,29.94,ENE,61,1.0,4.0,89,0.00,,OVC090,0.00,0.00,VWS V14.01,2013-03-09 04:30:00,
2013-03-08 21:31:00,27.2,23.3,29.95,SSE,150,0.0,2.0,85,0.00,,CLR,0.00,0.00,VWS V14.01,2013-03-09 04:31:00,
2013-03-08 21:36:00,27.1,23.2,29.95,ESE,121,1.0,3.0,85,0.00,,CLR,0.00,0.00,VWS V14.01,2013-03-09 04:36:00,
2013-03-08 21:41:00,26.9,23.3,29.95,ESE,117,1.0,3.0,86,0.00,,CLR,0.00,0.00,VWS V14.01,2013-03-09 04:41:00,
2013-03-08 21:46:00,26.6,23.0,29.95,ESE,113,1.0,3.0,86,0.00,,CLR,0.00,0.00,VWS V14.01,2013-03-09 04:46:00,
2013-03-08 21:51:00,26.2,22.9,29.95,ESE,114,0.0,3.0,87,0.00,,CLR,0.00,0.00,VWS V14.01,2013-03-09 04:51:00,
2013-03-08 21:56:00,26.0,22.7,29.95,East,90,1.0,3.0,87,0.00,,CLR,0.00,0.00,VWS V14.01,2013-03-09 04:56:00,
2013-03-08 22:00:00,25.9,22.6,29.95,ESE,103,0.0,3.0,87,0.00,,CLR,0.00,0.00,VWS V14.01,2013-03-09 05:00:00,
2013-03-08 22:01:00,25.9,22.6,29.94,East,101,2.0,3.0,87,0.00,,CLR,0.00,0.00,VWS V14.01,2013-03-09 05:01:00,
2013-03-08 22:06:00,25.9,22.8,29.94,East,88,1.0,3.0,88,0.00,,BKN110,0.00,0.00,VWS V14.01,2013-03-09 05:06:00,
2013-03-08 22:11:00,25.5,22.5,29.94,East,92,2.0,3.0,88,0.00,,BKN110,0.00,0.00,VWS V14.01,2013-03-09 05:11:00,
2013-03-08 22:16:00,25.3,22.5,29.93,East,95,2.0,3.0,89,0.00,,BKN110,0.00,0.00,VWS V14.01,2013-03-09 05:16:00,
2013-03-08 22:21:00,25.0,22.2,29.94,East,91,1.0,3.0,89,0.00,,BKN110,0.00,0.00,VWS V14.01,2013-03-09 05:21:00,
2013-03-08 22:26:00,24.6,21.8,29.93,East,95,1.0,3.0,89,0.00,,BKN110,0.00,0.00,VWS V14.01,2013-03-09 05:26:00,
2013-03-08 22:30:00,26.8,24.8,29.92,NE,52,0.0,3.0,92,0.00,,OVC090,0.00,0.00,VWS V14.01,2013-03-09 05:30:00,
2013-03-08 22:31:00,24.1,21.3,29.94,ENE,59,3.0,4.0,89,0.00,,BKN110,0.00,0.00,VWS V14.01,2013-03-09 05:31:00,
2013-03-08 22:36:00,24.0,21.2,29.94,ENE,72,1.0,3.0,89,0.00,,BKN110,0.00,0.00,VWS V14.01,2013-03-09 05:36:00,
2013-03-08 22:41:00,24.7,22.2,29.93,East,84,3.0,3.0,90,0.00,,BKN110,0.00,0.00,VWS V14.01,2013-03-09 05:41:00,
2013-03-08 22:46:00,25.0,22.5,29.93,ENE,61,1.0,3.0,90,0.00,,BKN110,0.00,0.00,VWS V14.01,2013-03-09 05:46:00,
2013-03-08 22:51:00,25.1,22.6,29.93,NE,40,2.0,3.0,90,0.00,,BKN110,0.00,0.00,VWS V14.01,2013-03-09 05:51:00,
2013-03-08 22:56:00,25.2,23.0,29.94,NE,40,1.0,3.0,91,0.00,,BKN110,0.00,0.00,VWS V14.01,2013-03-09 05:56:00,
2013-03-08 23:00:00,27.1,25.1,29.91,NE,52,0.0,2.0,92,0.00,,OVC090,0.00,0.00,VWS V14.01,2013-03-09 06:00:00,
2013-03-08 23:01:00,25.4,23.1,29.94,NE,40,0.0,3.0,91,0.00,,BKN110,0.00,0.00,VWS V14.01,2013-03-09 06:01:00,
2013-03-08 23:06:00,25.8,23.5,29.93,East,79,1.0,3.0,91,0.00,,OVC130,0.00,0.00,VWS V14.01,2013-03-09 06:06:00,
2013-03-08 23:11:00,26.1,23.8,29.93,ENE,76,0.0,3.0,91,0.00,,OVC130,0.00,0.00,VWS V14.01,2013-03-09 06:11:00,
2013-03-08 23:16:00,26.3,24.0,29.94,NE,52,2.0,3.0,91,0.00,,OVC130,0.00,0.00,VWS V14.01,2013-03-09 06:16:00,
2013-03-08 23:21:00,26.5,24.2,29.93,NE,52,0.0,3.0,91,0.00,,OVC130,0.00,0.00,VWS V14.01,2013-03-09 06:21:00,
2013-03-08 23:26:00,26.7,24.4,29.93,NE,52,0.0,3.0,91,0.00,,OVC130,0.00,0.00,VWS V14.01,2013-03-09 06:26:00,
2013-03-08 23:30:00,27.3,25.5,29.88,West,281,0.0,5.0,93,0.00,,OVC090,0.00,0.00,VWS V14.01,2013-03-09 06:30:00,
2013-03-08 23:31:00,26.8,24.8,29.92,NE,52,0.0,3.0,92,0.00,,OVC130,0.00,0.00,VWS V14.01,2013-03-09 06:31:00,
2013-03-08 23:36:00,26.9,24.9,29.92,NE,53,0.0,2.0,92,0.00,,OVC130,0.00,0.00,VWS V14.01,2013-03-09 06:36:00,
2013-03-08 23:41:00,26.9,24.9,29.92,NE,53,0.0,2.0,92,0.00,,OVC130,0.00,0.00,VWS V14.01,2013-03-09 06:41:00,
2013-03-08 23:46:00,27.0,25.0,29.92,NE,52,0.0,2.0,92,0.00,,OVC130,0.00,0.00,VWS V14.01,2013-03-09 06:46:00,
2013-03-08 23:51:00,27.1,25.1,29.91,NE,53,0.0,2.0,92,0.00,,OVC130,0.00,0.00,VWS V14.01,2013-03-09 06:51:00,
2013-03-08 23:56:00,27.2,25.2,29.91,NE,53,1.0,2.0,92,0.00,,OVC130,0.00,0.00,VWS V14.01,2013-03-09 06:56:00,